createdAt,value
2022-12-26T00:00:38.529Z,0.43
2022-12-26T00:03:05.977Z,0.40
2022-12-26T00:05:37.481Z,0.35
2022-12-26T00:08:05.067Z,0.60
2022-12-26T00:10:32.160Z,0.60
2022-12-26T00:13:40.151Z,1.05
2022-12-26T00:15:47.654Z,0.40
2022-12-26T00:18:14.837Z,0.55
2022-12-26T00:20:41.938Z,0.52
2022-12-26T00:23:09.507Z,0.45
2022-12-26T00:25:36.626Z,0.35
2022-12-26T00:28:03.817Z,0.40
2022-12-26T00:30:31.000Z,0.50
2022-12-26T00:32:58.152Z,0.57
2022-12-26T00:35:25.214Z,0.40
2022-12-26T00:37:52.292Z,0.70
2022-12-26T00:40:19.471Z,0.85
2022-12-26T00:42:46.602Z,0.88
2022-12-26T00:45:13.695Z,0.90
2022-12-26T00:47:40.756Z,1.20
2022-12-26T00:50:12.951Z,0.98
2022-12-26T00:52:42.646Z,1.08
2022-12-26T00:55:10.252Z,1.60
2022-12-26T00:57:37.357Z,1.15
2022-12-26T01:00:04.983Z,0.95
2022-12-26T01:02:40.135Z,1.08
2022-12-26T01:05:08.461Z,0.70
2022-12-26T01:08:19.612Z,1.20
2022-12-26T01:10:23.963Z,1.33
2022-12-26T01:12:51.295Z,1.35
2022-12-26T01:15:18.524Z,1.05
2022-12-26T01:17:46.701Z,1.20
2022-12-26T01:20:13.829Z,1.02
2022-12-26T01:22:40.979Z,1.30
2022-12-26T01:25:08.417Z,1.17
2022-12-26T01:27:35.600Z,1.35
2022-12-26T01:30:02.743Z,1.15
2022-12-26T01:32:30.684Z,0.90
2022-12-26T01:34:57.811Z,1.40
2022-12-26T01:37:24.979Z,0.88
2022-12-26T01:39:52.336Z,0.85
2022-12-26T01:42:21.446Z,1.10
2022-12-26T01:45:08.467Z,0.65
2022-12-26T01:47:41.168Z,0.70
2022-12-26T01:50:14.392Z,0.60
2022-12-26T01:52:45.197Z,0.40
2022-12-26T01:55:13.769Z,0.65
2022-12-26T01:57:42.816Z,0.63
2022-12-26T02:00:10.443Z,0.63
2022-12-26T02:03:13.039Z,0.88
2022-12-26T02:05:40.644Z,1.08
2022-12-26T02:08:17.392Z,0.65
2022-12-26T02:10:50.098Z,0.82
2022-12-26T02:13:18.066Z,1.17
2022-12-26T02:15:45.373Z,0.90
2022-12-26T02:18:12.577Z,0.70
2022-12-26T02:20:43.821Z,0.90
2022-12-26T02:29:01.235Z,0.70
2022-12-26T02:31:48.361Z,1.67
2022-12-26T02:34:19.877Z,1.13
2022-12-26T02:37:06.833Z,0.68
2022-12-26T02:42:21.812Z,1.45
2022-12-26T02:45:14.305Z,1.65
2022-12-26T02:50:53.505Z,1.25
2022-12-26T02:53:48.424Z,0.75
2022-12-26T02:56:42.878Z,1.70
2022-12-26T02:59:56.399Z,2.10
2022-12-26T03:02:50.515Z,2.50
2022-12-26T03:05:41.935Z,1.88
2022-12-26T03:08:30.693Z,1.27
2022-12-26T03:11:18.462Z,0.70
2022-12-26T03:13:46.163Z,0.60
2022-12-26T03:16:34.072Z,1.20
2022-12-26T03:19:03.935Z,1.33
2022-12-26T03:21:34.258Z,1.10
2022-12-26T03:24:01.429Z,1.33
2022-12-26T03:26:40.345Z,0.88
2022-12-26T03:29:29.674Z,1.45
2022-12-26T03:31:57.334Z,1.50
2022-12-26T03:34:24.936Z,1.25
2022-12-26T03:40:17.238Z,1.10
2022-12-26T03:45:49.815Z,1.67
2022-12-26T03:48:41.208Z,0.93
2022-12-26T03:51:31.305Z,1.15
2022-12-26T03:54:26.004Z,1.20
2022-12-26T03:57:15.493Z,0.90
2022-12-26T04:00:22.224Z,0.90
2022-12-26T04:03:11.251Z,0.55
2022-12-26T04:05:59.351Z,0.93
2022-12-26T04:09:06.192Z,0.65
2022-12-26T04:11:55.295Z,0.50
2022-12-26T04:15:02.026Z,0.90
2022-12-26T04:18:10.937Z,0.95
2022-12-26T04:20:44.249Z,1.00
2022-12-26T04:26:28.000Z,0.82
2022-12-26T04:29:15.073Z,1.40
2022-12-26T04:32:21.893Z,1.65
2022-12-26T04:35:12.436Z,1.42
2022-12-26T04:38:01.346Z,2.13
2022-12-26T04:40:51.155Z,2.20
2022-12-26T04:43:49.014Z,2.33
2022-12-26T04:46:18.996Z,1.77
2022-12-26T04:49:07.546Z,2.10
2022-12-26T04:51:34.886Z,1.52
2022-12-26T04:54:02.408Z,1.73
2022-12-26T04:56:29.709Z,1.85
2022-12-26T04:58:56.918Z,1.20
2022-12-26T05:01:43.993Z,1.55
2022-12-26T05:04:33.727Z,1.10
2022-12-26T05:07:21.630Z,0.88
2022-12-26T05:09:50.584Z,1.20
2022-12-26T05:12:17.760Z,0.93
2022-12-26T05:14:44.910Z,1.02
2022-12-26T05:17:32.854Z,0.90
2022-12-26T05:20:19.809Z,0.82
2022-12-26T05:23:06.933Z,0.68
2022-12-26T05:25:55.404Z,0.73
2022-12-26T05:28:42.493Z,1.55
2022-12-26T05:31:12.105Z,0.80
2022-12-26T05:33:59.444Z,1.15
2022-12-26T05:36:29.199Z,1.45
2022-12-26T05:38:56.715Z,1.13
2022-12-26T05:41:24.451Z,1.27
2022-12-26T05:43:51.824Z,1.40
2022-12-26T05:46:19.039Z,1.00
2022-12-26T05:48:46.244Z,1.20
2022-12-26T05:51:13.459Z,1.20
2022-12-26T05:53:40.806Z,1.23
2022-12-26T05:56:11.772Z,0.60
2022-12-26T05:58:39.528Z,0.88
2022-12-26T06:01:09.251Z,0.88
2022-12-26T06:03:36.635Z,0.90
2022-12-26T06:06:04.415Z,0.65
2022-12-26T06:08:31.647Z,1.25
2022-12-26T06:10:58.846Z,0.95
2022-12-26T06:13:26.203Z,0.90
2022-12-26T06:15:53.412Z,1.17
2022-12-26T06:18:20.735Z,1.17
2022-12-26T06:20:47.862Z,1.45
2022-12-26T06:23:15.083Z,1.38
2022-12-26T06:25:42.234Z,2.45
2022-12-26T06:28:09.392Z,2.50
2022-12-26T06:30:36.541Z,2.60
2022-12-26T06:33:03.984Z,2.00
2022-12-26T06:35:31.167Z,1.75
2022-12-26T06:37:58.399Z,2.25
2022-12-26T06:40:25.506Z,2.08
2022-12-26T06:42:52.723Z,2.10
2022-12-26T06:45:19.870Z,1.80
2022-12-26T06:47:47.021Z,1.73
2022-12-26T06:50:14.184Z,2.22
2022-12-26T06:52:41.402Z,1.55
2022-12-26T06:55:08.794Z,2.53
2022-12-26T06:57:35.961Z,2.33
2022-12-26T07:00:03.864Z,2.55
2022-12-26T07:02:31.784Z,2.60
2022-12-26T07:04:59.084Z,3.58
2022-12-26T07:07:26.247Z,3.53
2022-12-26T07:09:53.369Z,3.35
2022-12-26T07:12:22.257Z,3.28
2022-12-26T07:14:49.441Z,4.07
2022-12-26T07:17:16.629Z,4.00
2022-12-26T07:19:43.748Z,4.32
2022-12-26T07:22:11.037Z,2.33
2022-12-26T07:24:38.244Z,2.55
2022-12-26T07:27:05.385Z,2.30
2022-12-26T07:29:32.581Z,2.30
2022-12-26T07:31:59.803Z,2.28
2022-12-26T07:34:31.379Z,1.90
2022-12-26T07:37:00.445Z,2.80
2022-12-26T07:39:27.695Z,1.48
2022-12-26T07:41:58.106Z,1.98
2022-12-26T07:44:25.807Z,1.77
2022-12-26T07:46:53.006Z,1.98
2022-12-26T07:49:20.222Z,1.77
2022-12-26T07:51:47.439Z,2.17
2022-12-26T07:54:15.182Z,1.85
2022-12-26T07:56:42.284Z,2.03
2022-12-26T07:59:13.615Z,1.45
2022-12-26T08:01:40.872Z,1.42
2022-12-26T08:04:08.412Z,1.55
2022-12-26T08:06:35.855Z,1.13
2022-12-26T08:09:03.324Z,1.20
2022-12-26T08:11:32.117Z,1.48
2022-12-26T08:13:59.359Z,1.00
2022-12-26T08:16:26.570Z,0.90
2022-12-26T08:18:53.800Z,0.98
2022-12-26T08:21:20.945Z,0.85
2022-12-26T08:23:48.657Z,0.63
2022-12-26T08:26:22.820Z,0.50
2022-12-26T08:28:50.902Z,0.75
2022-12-26T08:31:18.943Z,0.55
2022-12-26T08:33:46.266Z,0.60
2022-12-26T08:36:17.272Z,0.60
2022-12-26T08:38:46.103Z,0.60
2022-12-26T08:41:13.273Z,0.60
2022-12-26T08:46:28.042Z,0.70
2022-12-26T08:48:55.140Z,0.60
2022-12-26T08:51:23.354Z,0.60
2022-12-26T08:53:51.218Z,0.45
2022-12-26T08:56:19.624Z,0.40
2022-12-26T08:58:47.097Z,0.30
2022-12-26T09:01:15.856Z,0.35
2022-12-26T09:03:43.809Z,0.60
2022-12-26T09:06:11.962Z,0.82
2022-12-26T09:08:39.429Z,0.70
2022-12-26T09:11:08.990Z,0.50
2022-12-26T09:13:36.800Z,0.40
2022-12-26T09:16:21.366Z,0.30
2022-12-26T09:18:49.017Z,0.32
2022-12-26T09:21:16.605Z,0.30
2022-12-26T09:23:44.149Z,0.30
2022-12-26T09:26:15.660Z,0.50
2022-12-26T09:28:42.911Z,0.30
2022-12-26T09:31:15.206Z,0.25
2022-12-26T09:33:42.579Z,0.20
2022-12-26T09:36:14.714Z,0.50
2022-12-26T09:38:44.101Z,0.63
2022-12-26T09:43:59.078Z,0.82
2022-12-26T09:46:46.087Z,0.57
2022-12-26T09:49:17.488Z,1.40
2022-12-26T09:51:46.844Z,0.93
2022-12-26T09:54:18.866Z,0.60
2022-12-26T09:57:02.221Z,0.70
2022-12-26T09:59:32.512Z,0.40
2022-12-26T10:01:59.845Z,0.40
2022-12-26T10:04:29.996Z,0.45
2022-12-26T10:07:05.887Z,0.95
2022-12-26T10:12:34.229Z,0.30
2022-12-26T10:20:34.787Z,0.40
2022-12-26T10:23:15.804Z,0.60
2022-12-26T10:28:40.502Z,0.40
2022-12-26T10:31:19.665Z,0.40
2022-12-26T10:36:17.182Z,0.30
2022-12-26T10:38:46.403Z,0.55
2022-12-26T10:41:16.756Z,0.30
2022-12-26T10:43:45.241Z,0.30
2022-12-26T10:46:17.951Z,0.35
2022-12-26T10:48:45.356Z,0.65
2022-12-26T10:51:14.199Z,0.20
2022-12-26T10:53:43.387Z,0.50
2022-12-26T10:56:16.350Z,0.60
2022-12-26T10:58:46.023Z,0.30
2022-12-26T11:04:18.820Z,0.40
2022-12-26T11:06:52.867Z,0.40
2022-12-26T11:09:32.399Z,0.45
2022-12-26T11:12:00.890Z,0.70
2022-12-26T11:14:33.750Z,0.70
2022-12-26T11:17:05.055Z,0.40
2022-12-26T11:19:35.040Z,0.32
2022-12-26T11:22:22.141Z,0.60
2022-12-26T11:25:09.151Z,0.50
2022-12-26T11:27:37.733Z,0.50
2022-12-26T11:32:52.403Z,0.40
2022-12-26T11:35:21.268Z,0.60
2022-12-26T11:37:51.917Z,0.68
2022-12-26T11:40:20.132Z,0.40
2022-12-26T11:42:50.571Z,0.55
2022-12-26T11:45:21.875Z,0.77
2022-12-26T11:47:49.069Z,0.38
2022-12-26T11:50:21.598Z,0.75
2022-12-26T11:58:15.281Z,0.43
2022-12-26T12:00:43.847Z,0.40
2022-12-26T12:03:21.874Z,0.40
2022-12-26T12:08:36.132Z,0.47
2022-12-26T12:14:01.634Z,0.40
2022-12-26T12:16:48.624Z,0.40
2022-12-26T12:19:22.971Z,0.60
2022-12-26T12:22:09.913Z,0.50
2022-12-26T12:27:22.177Z,0.55
2022-12-26T12:29:56.611Z,0.25
2022-12-26T12:32:29.438Z,0.60
2022-12-26T12:35:07.166Z,0.50
2022-12-26T12:40:31.920Z,0.90
2022-12-26T12:46:12.990Z,1.10
2022-12-26T12:49:00.018Z,0.70
2022-12-26T12:54:40.036Z,0.43
2022-12-26T12:57:27.111Z,0.70
2022-12-26T13:02:36.850Z,0.57
2022-12-26T13:05:23.659Z,0.57
2022-12-26T13:07:55.383Z,0.45
2022-12-26T13:10:25.233Z,0.55
2022-12-26T13:12:53.683Z,0.43
2022-12-26T13:15:27.713Z,0.40
2022-12-26T13:18:14.734Z,0.30
2022-12-26T13:20:43.791Z,0.25
2022-12-26T13:23:36.356Z,0.60
2022-12-26T13:26:07.568Z,0.60
2022-12-26T13:28:38.315Z,0.47
2022-12-26T13:31:05.702Z,0.85
2022-12-26T13:33:32.987Z,0.70
2022-12-26T13:36:01.591Z,0.68
2022-12-26T13:38:53.957Z,0.70
2022-12-26T13:41:41.650Z,0.93
2022-12-26T13:46:58.082Z,0.70
2022-12-26T13:49:27.769Z,0.80
2022-12-26T13:51:56.726Z,0.32
2022-12-26T13:54:24.817Z,0.45
2022-12-26T13:57:00.000Z,0.40
2022-12-26T13:59:32.362Z,0.28
2022-12-26T14:02:19.992Z,0.38
2022-12-26T14:07:40.770Z,0.47
2022-12-26T14:10:27.694Z,0.60
2022-12-26T14:15:48.963Z,0.60
2022-12-26T14:21:13.926Z,0.30
2022-12-26T14:23:47.369Z,0.32
2022-12-26T14:26:24.021Z,0.40
2022-12-26T14:29:10.992Z,0.25
2022-12-26T14:31:44.924Z,0.65
2022-12-26T14:34:18.457Z,0.35
2022-12-26T14:39:58.781Z,0.50
2022-12-26T14:42:46.278Z,0.60
2022-12-26T14:45:33.260Z,0.20
2022-12-26T14:48:00.449Z,0.30
2022-12-26T14:50:44.896Z,0.35
2022-12-26T14:59:16.798Z,0.55
2022-12-26T15:01:48.032Z,0.70
2022-12-26T15:04:21.145Z,0.55
2022-12-26T15:12:26.142Z,0.90
2022-12-26T15:15:04.568Z,0.70
2022-12-26T15:17:41.181Z,0.70
2022-12-26T15:25:51.128Z,0.50
2022-12-26T15:28:38.039Z,0.52
2022-12-26T15:31:25.161Z,0.43
2022-12-26T15:33:58.922Z,0.70
2022-12-26T15:36:32.403Z,0.30
2022-12-26T15:39:19.405Z,0.32
2022-12-26T15:41:47.957Z,0.35
2022-12-26T15:44:21.166Z,0.30
2022-12-26T15:46:56.757Z,0.63
2022-12-26T15:55:03.230Z,0.40
2022-12-26T15:57:50.678Z,0.90
2022-12-26T16:00:26.753Z,0.40
2022-12-26T16:05:33.860Z,0.70
2022-12-26T16:08:05.105Z,0.80
2022-12-26T16:10:33.670Z,0.68
2022-12-26T16:15:48.427Z,0.40
2022-12-26T16:21:15.123Z,0.70
2022-12-26T16:23:43.506Z,0.47
2022-12-26T16:26:17.225Z,0.68
2022-12-26T16:28:44.773Z,0.68
2022-12-26T16:31:18.309Z,0.65
2022-12-26T16:33:45.550Z,0.70
2022-12-26T16:36:14.605Z,0.43
2022-12-26T16:38:41.762Z,0.73
2022-12-26T16:41:28.749Z,0.68
2022-12-26T16:43:56.879Z,0.73
2022-12-26T16:46:26.778Z,0.60
2022-12-26T16:48:56.184Z,0.40
2022-12-26T16:51:40.511Z,0.45
2022-12-26T16:56:34.873Z,0.40
2022-12-26T16:59:05.100Z,0.45
2022-12-26T17:01:33.238Z,0.50
2022-12-26T17:06:45.491Z,0.40
2022-12-26T17:09:16.837Z,0.90
2022-12-26T17:11:51.839Z,0.80
2022-12-26T17:14:24.990Z,0.47
2022-12-26T17:17:03.408Z,0.60
2022-12-26T17:19:33.050Z,0.60
2022-12-26T17:25:13.413Z,0.75
2022-12-26T17:27:41.105Z,0.50
2022-12-26T17:30:28.235Z,0.60
2022-12-26T17:32:55.739Z,0.52
2022-12-26T17:35:26.012Z,0.80
2022-12-26T17:38:10.789Z,0.57
2022-12-26T17:40:39.029Z,0.50
2022-12-26T17:43:07.643Z,0.68
2022-12-26T17:45:34.854Z,0.57
2022-12-26T17:48:02.050Z,0.70
2022-12-26T17:50:35.230Z,0.68
2022-12-26T17:53:07.089Z,0.57
2022-12-26T17:55:34.641Z,0.80
2022-12-26T17:58:01.845Z,0.75
2022-12-26T18:00:29.330Z,0.60
2022-12-26T18:02:56.921Z,0.60
2022-12-26T18:05:24.084Z,0.50
2022-12-26T18:07:52.137Z,0.68
2022-12-26T18:10:21.367Z,0.90
2022-12-26T18:12:48.606Z,0.80
2022-12-26T18:15:16.148Z,0.77
2022-12-26T18:17:43.339Z,1.00
2022-12-26T18:20:19.492Z,0.73
2022-12-26T18:22:47.989Z,0.65
2022-12-26T18:25:16.433Z,0.95
2022-12-26T18:27:43.791Z,1.30
2022-12-26T18:30:14.732Z,0.80
2022-12-26T18:32:42.037Z,0.90
2022-12-26T18:35:10.354Z,0.80
2022-12-26T18:37:37.532Z,0.80
2022-12-26T18:40:05.347Z,0.70
2022-12-26T18:42:32.535Z,1.02
2022-12-26T18:44:59.703Z,1.20
2022-12-26T18:47:26.864Z,0.90
2022-12-26T18:49:53.968Z,0.80
2022-12-26T18:52:21.063Z,1.52
2022-12-26T18:54:48.212Z,0.68
2022-12-26T18:57:17.790Z,0.80
2022-12-26T18:59:45.136Z,0.82
2022-12-26T19:02:15.343Z,0.60
2022-12-26T19:04:42.530Z,1.05
2022-12-26T19:07:11.213Z,1.05
2022-12-26T19:09:38.400Z,0.85
2022-12-26T19:12:05.832Z,0.98
2022-12-26T19:14:33.158Z,0.77
2022-12-26T19:17:00.720Z,1.17
2022-12-26T19:19:29.959Z,1.15
2022-12-26T19:21:57.236Z,0.90
2022-12-26T19:24:24.477Z,1.13
2022-12-26T19:26:51.695Z,1.05
2022-12-26T19:29:18.885Z,1.10
2022-12-26T19:31:46.435Z,1.10
2022-12-26T19:34:13.733Z,1.60
2022-12-26T19:36:40.876Z,0.73
2022-12-26T19:39:08.084Z,1.50
2022-12-26T19:41:35.216Z,1.77
2022-12-26T19:44:02.310Z,1.20
2022-12-26T19:46:29.492Z,1.60
2022-12-26T19:48:56.696Z,1.02
2022-12-26T19:51:23.973Z,0.85
2022-12-26T19:53:51.474Z,0.85
2022-12-26T19:56:20.366Z,1.00
2022-12-26T19:58:50.530Z,1.25
2022-12-26T20:01:23.611Z,1.20
2022-12-26T20:03:51.205Z,1.00
2022-12-26T20:06:20.084Z,1.52
2022-12-26T20:08:47.969Z,1.13
2022-12-26T20:11:16.429Z,0.75
2022-12-26T20:13:44.101Z,0.93
2022-12-26T20:16:37.425Z,1.20
2022-12-26T20:19:00.520Z,1.15
2022-12-26T20:21:28.121Z,1.20
2022-12-26T20:23:56.876Z,1.05
2022-12-26T20:26:24.611Z,1.00
2022-12-26T20:28:51.913Z,0.80
2022-12-26T20:31:21.590Z,0.80
2022-12-26T20:33:50.824Z,1.00
2022-12-26T20:38:57.162Z,0.80
2022-12-26T20:41:25.236Z,0.93
2022-12-26T20:43:52.520Z,0.90
2022-12-26T20:46:23.736Z,1.20
2022-12-26T20:48:50.942Z,0.82
2022-12-26T20:51:20.337Z,0.93
2022-12-26T20:53:47.807Z,1.05
2022-12-26T20:56:15.705Z,1.08
2022-12-26T20:58:42.968Z,0.70
2022-12-26T21:01:12.961Z,0.88
2022-12-26T21:03:40.398Z,0.80
2022-12-26T21:06:12.902Z,0.60
2022-12-26T21:08:40.492Z,0.80
2022-12-26T21:11:09.853Z,0.70
2022-12-26T21:13:37.622Z,0.80
2022-12-26T21:16:14.956Z,1.08
2022-12-26T21:18:42.407Z,0.98
2022-12-26T21:21:11.470Z,0.95
2022-12-26T21:23:39.075Z,0.70
2022-12-26T21:26:06.640Z,0.65
2022-12-26T21:28:34.702Z,1.00
2022-12-26T21:31:02.565Z,1.05
2022-12-26T21:33:31.037Z,0.90
2022-12-26T21:35:59.628Z,0.82
2022-12-26T21:38:28.633Z,0.90
2022-12-26T21:40:56.384Z,0.60
2022-12-26T21:43:30.586Z,1.02
2022-12-26T21:46:01.188Z,0.93
2022-12-26T21:48:28.946Z,1.13
2022-12-26T21:50:56.243Z,1.00
2022-12-26T21:53:23.483Z,1.00
2022-12-26T21:55:50.672Z,0.85
2022-12-26T21:58:17.860Z,0.80
2022-12-26T22:00:45.457Z,0.55
2022-12-26T22:03:32.577Z,1.20
2022-12-26T22:05:59.921Z,0.77
2022-12-26T22:08:27.168Z,0.75
2022-12-26T22:11:14.676Z,1.00
2022-12-26T22:13:43.023Z,0.85
2022-12-26T22:16:12.240Z,1.00
2022-12-26T22:18:42.298Z,1.05
2022-12-26T22:21:11.257Z,0.85
2022-12-26T22:23:38.891Z,0.60
2022-12-26T22:26:07.441Z,1.25
2022-12-26T22:28:35.087Z,0.90
2022-12-26T22:31:02.336Z,1.02
2022-12-26T22:33:29.860Z,1.00
2022-12-26T22:36:04.345Z,1.10
2022-12-26T22:38:31.578Z,0.88
2022-12-26T22:40:59.806Z,0.82
2022-12-26T22:43:27.709Z,0.98
2022-12-26T22:45:55.527Z,1.25
2022-12-26T22:48:23.987Z,0.80
2022-12-26T22:50:52.936Z,1.30
2022-12-26T22:53:22.356Z,1.13
2022-12-26T22:55:52.160Z,0.88
2022-12-26T22:58:19.614Z,0.95
2022-12-26T23:00:46.918Z,0.98
2022-12-26T23:03:14.327Z,1.10
2022-12-26T23:05:42.122Z,0.95
2022-12-26T23:08:13.298Z,1.30
2022-12-26T23:10:40.783Z,1.27
2022-12-26T23:13:11.236Z,1.13
2022-12-26T23:15:42.402Z,0.85
2022-12-26T23:21:06.545Z,1.08
2022-12-26T23:23:33.832Z,1.20
2022-12-26T23:26:01.638Z,0.95
2022-12-26T23:28:49.173Z,1.08
2022-12-26T23:31:16.490Z,0.80
2022-12-26T23:33:43.685Z,0.70
2022-12-26T23:36:10.959Z,0.90
2022-12-26T23:38:38.191Z,0.73
2022-12-26T23:41:05.550Z,1.10
2022-12-26T23:43:33.896Z,0.80
2022-12-26T23:46:01.103Z,1.00
2022-12-26T23:48:28.275Z,0.88
2022-12-26T23:51:04.248Z,1.15
2022-12-26T23:53:31.470Z,1.10
2022-12-26T23:55:58.718Z,0.90
2022-12-26T23:58:26.128Z,0.88
